Flight Track Log - Related Links

Times and Time Zones

All times are in EDT time to prevent confusion due to time zone crossing. See the SWA508 flight status page for this flight to view local times or setup timezone preferences in your user account.

Time Position Orientation Groundspeed Altitude Reporting Facility
EDT Latitude Longitude Course Direction KTS MPH feet Rate Location/Type
Fri 01:19:23 PM 41.8231 -87.7603 66° East 187 215 2,500  Level Chicago Center
Fri 01:20:26 PM 41.8542 -87.6650 66° East 246 283 6,700 3,936 Climbing Chicago Center
Fri 01:21:28 PM 41.8689 -87.5633 79° East 275 316 10,700 3,629 Climbing Chicago Center
Fri 01:22:30 PM 41.8594 -87.4600 97° East 289 333 14,200 3,000 Climbing Chicago Center
Fri 01:23:32 PM 41.8342 -87.3542 108° East 295 339 16,900 2,371 Climbing Chicago Center
Fri 01:24:34 PM 41.8019 -87.2275 109° East 351 404 19,100 2,419 Climbing Chicago Center
Fri 01:25:36 PM 41.7697 -87.0975 108° East 366 421 21,900 2,710 Climbing Chicago Center
Fri 01:26:38 PM 41.7636 -86.9217 93° East 395 455 24,700 2,565 Climbing Chicago Center
Fri 01:27:40 PM 41.7658 -86.7694 89° East 406 467 27,200 1,935 Climbing Chicago Center
Fri 01:28:42 PM 41.7653 -86.6297 90° East 415 478 28,700 1,645 Climbing Chicago Center
Fri 01:29:44 PM 41.7683 -86.4356 89° East 434 499 30,600 1,790 Climbing Chicago Center
Fri 01:30:46 PM 41.7683 -86.2689 90° East 448 516 32,400 1,742 Climbing Chicago Center
Fri 01:31:48 PM 41.7711 -86.1022 89° East 448 516 34,200 1,597 Climbing Chicago Center
Fri 01:32:50 PM 41.7728 -85.9319 89° East 455 524 35,700 1,452 Climbing Chicago Center
Fri 01:33:52 PM 41.7744 -85.7625 89° East 455 524 37,200 1,452 Climbing Chicago Center
Fri 01:34:54 PM 41.7764 -85.5908 89° East 458 527 38,700 871 Climbing Chicago Center
Fri 01:35:56 PM 41.7778 -85.4189 89° East 453 521 39,000 145 Climbing Chicago Center
Fri 01:36:58 PM 41.7783 -85.2492 90° East 447 514 39,000  Level Chicago Center
Fri 01:38:00 PM 41.7811 -85.0503 89° East 438 504 39,000  Level Cleveland Center
Fri 01:38:59 PM 41.7800 -84.9192 91° East 438 504 39,000  Level Cleveland Center
Fri 01:39:59 PM 41.7803 -84.7436 90° East 438 504 39,000  Level Cleveland Center
Fri 01:41:00 PM 41.7797 -84.5794 90° East 438 504 39,000  Level Cleveland Center
Fri 01:41:59 PM 41.7792 -84.4178 90° East 438 504 39,000  Level Cleveland Center
Fri 01:43:00 PM 41.7758 -84.2589 92° East 438 504 39,000  Level Cleveland Center
Fri 01:44:00 PM 41.7747 -84.0944 90° East 438 504 39,000  Level Cleveland Center
Fri 01:44:59 PM 41.7714 -83.9300 92° East 444 511 39,000  Level Cleveland Center
Fri 01:46:00 PM 41.7697 -83.7656 91° East 444 511 39,000  Level Cleveland Center
Fri 01:46:59 PM 41.7681 -83.5983 91° East 444 511 39,000  Level Cleveland Center
Fri 01:47:59 PM 41.7578 -83.4336 98° East 444 511 39,000  Level Cleveland Center
Fri 01:48:00 PM 41.7556 -83.4481 98° East  Level FlightAware Approximate
Fri 01:48:59 PM 41.7408 -83.2686 98° East 444 511 39,000  Level Cleveland Center
Fri 01:50:00 PM 41.7258 -83.1039 97° East 449 517 39,000  Level Cleveland Center
Fri 01:50:59 PM 41.7086 -82.9392 98° East 449 517 39,000  Level Cleveland Center
Fri 01:52:00 PM 41.6931 -82.7744 97° East 449 517 39,000  Level Cleveland Center
Fri 01:52:59 PM 41.6753 -82.6125 98° East 449 517 39,000  Level Cleveland Center
Fri 01:54:00 PM 41.6569 -82.4508 99° East 444 511 39,000  Level Cleveland Center
Fri 01:55:00 PM 41.6431 -82.2864 96° East 444 511 39,000  Level Cleveland Center
Fri 01:56:00 PM 41.6264 -82.1247 98° East 444 511 39,000  Level Cleveland Center
Fri 01:56:59 PM 41.6058 -81.9439 99° East 444 511 39,000  Level Cleveland Center
Fri 01:57:59 PM 41.5867 -81.7825 99° East 450 518 39,000  Level Cleveland Center
Fri 01:58:59 PM 41.5467 -81.6264 109° East 437 503 39,000  Level Cleveland Center
Fri 02:00:00 PM 41.4517 -81.5278 142° Southeast 423 487 39,000  Level Cleveland Center
Fri 02:00:59 PM 41.3458 -81.4433 149° Southeast 428 493 39,000  Level Cleveland Center
Fri 02:01:59 PM 41.2883 -81.3156 121° Southeast 435 501 39,000  Level Cleveland Center
Fri 02:03:00 PM 41.2267 -81.1683 119° Southeast 440 506 39,000  Level Cleveland Center
Fri 02:04:00 PM 41.1669 -81.0244 119° Southeast 444 511 39,000  Level Cleveland Center
Fri 02:05:00 PM 41.1028 -80.8669 118° Southeast 444 511 39,000  Level Cleveland Center
Fri 02:05:59 PM 41.0428 -80.7208 119° Southeast 439 505 39,000  Level Cleveland Center
Fri 02:07:00 PM 40.9822 -80.5775 119° Southeast 439 505 39,000  Level Cleveland Center
Fri 02:08:00 PM 40.9217 -80.4347 119° Southeast 439 505 39,000  Level Cleveland Center
Fri 02:09:00 PM 40.8736 -80.3194 119° Southeast 439 505 39,000  Level Cleveland Center
Fri 02:10:00 PM 40.8044 -80.1633 120° Southeast 439 505 39,000  Level Cleveland Center
Fri 02:11:00 PM 40.7472 -79.9967 114° Southeast 445 512 39,000  Level Cleveland Center
Fri 02:11:59 PM 40.6944 -79.8464 115° Southeast 450 518 39,000  Level Cleveland Center
Fri 02:13:00 PM 40.6392 -79.6992 116° Southeast 445 512 39,000 -149 Level Cleveland Center
Fri 02:14:00 PM 40.5919 -79.5494 113° Southeast 445 512 38,700 -550 Descending Cleveland Center
Fri 02:15:00 PM 40.5656 -79.4078 104° East 445 512 37,900 -958 Descending Cleveland Center
Fri 02:15:59 PM 40.5344 -79.2336 103° East 440 506 36,800 -1,059 Descending Cleveland Center
Fri 02:16:59 PM 40.5075 -79.0703 102° East 440 506 35,800 -950 Descending Cleveland Center
Fri 02:17:59 PM 40.4781 -78.9072 103° East 446 513 34,900 -1,488 Descending Cleveland Center
Fri 02:19:00 PM 40.4506 -78.7442 102° East 451 519 32,800 -1,587 Descending Cleveland Center
Fri 02:20:00 PM 40.4208 -78.5839 104° East 451 519 31,700 -1,078 Descending Cleveland Center
Fri 02:21:47 PM 40.3747 -78.3183 103° East 427 491 29,800 -1,401 Descending New York Center
Fri 02:22:47 PM 40.3503 -78.1742 102° East 422 486 27,800 -2,034 Descending New York Center
Fri 02:23:45 PM 40.3236 -78.0322 104° East 411 473 25,800 -1,424 Descending New York Center
Fri 02:24:45 PM 40.3092 -77.8947 98° East 391 450 25,000 -397 Descending New York Center
Fri 02:25:46 PM 40.3008 -77.7578 95° East 384 442 25,000  Level New York Center
Fri 02:26:47 PM 40.2856 -77.6228 98° East 378 435 25,000  Level New York Center
Fri 02:27:45 PM 40.2683 -77.4878 99° East 373 429 25,000 -454 Level New York Center
Fri 02:28:46 PM 40.2536 -77.3447 98° East 373 429 24,100 -942 Descending New York Center
Fri 02:29:46 PM 40.2336 -77.2122 101° East 373 429 23,100 -1,008 Descending New York Center
Fri 02:30:45 PM 40.2200 -77.0806 98° East 373 429 22,100 -1,059 Descending New York Center
Fri 02:31:45 PM 40.2017 -76.9511 100° East 373 429 21,000 -1,300 Descending New York Center
Fri 02:32:45 PM 40.1853 -76.8247 100° East 366 421 19,500 -1,488 Descending New York Center
Fri 02:33:46 PM 40.1747 -76.7042 96° East 354 407 18,000 -1,240 Descending New York Center
Fri 02:34:46 PM 40.1639 -76.5864 97° East 344 396 17,000 -1,339 Descending New York Center
Fri 02:35:47 PM 40.1550 -76.4717 96° East 324 373 15,300 -1,525 Descending New York Center
Fri 02:36:44 PM 40.1436 -76.3592 98° East 316 364 14,000 -1,475 Descending New York Center
Fri 02:37:45 PM 40.1322 -76.2469 98° East 316 364 12,400 -1,488 Descending New York Center
Fri 02:38:45 PM 40.1203 -76.1483 99° East 311 358 11,000 -1,488 Descending New York Center
Fri 02:39:46 PM 40.1108 -76.0336 96° East 295 339 9,400 -1,361 Descending New York Center
Fri 02:40:44 PM 40.1019 -75.9489 98° East 278 320 8,300 -706 Descending New York Center
Fri 02:41:45 PM 40.0900 -75.8419 98° East 265 305 8,000 -149 Descending New York Center
Fri 02:42:45 PM 40.0808 -75.7600 98° East 260 299 8,000 -98 Level New York Center
Fri 02:43:47 PM 40.0767 -75.6619 93° East 255 293 7,800 -605 Descending New York Center
Fri 02:44:44 PM 40.0719 -75.5775 94° East 255 293 6,800 -908 Descending New York Center
Fri 02:45:46 PM 40.0672 -75.4822 94° East 245 282 6,000 -390 Descending New York Center
Fri 02:46:47 PM 40.0472 -75.4131 111° Southeast 219 252 6,000  Level New York Center
Fri 02:47:44 PM 39.9769 -75.3950 169° South 217 250 6,000 -32 Level New York Center
Fri 02:49:52 PM 39.9000 -75.5333 234° Southwest 238 274 5,900 -317 Descending Philadelphia TRACON
Fri 02:50:53 PM 39.8833 -75.6000 252° West 225 259 5,000 -446 Descending Philadelphia TRACON
Fri 02:51:53 PM 39.8667 -75.6833 255° West 215 247 5,000 -421 Level Philadelphia TRACON
Fri 02:52:47 PM 39.8167 -75.6667 166° South 201 231 4,200 -500 Descending Philadelphia TRACON
Fri 02:53:53 PM 39.8000 -75.6000 108° East 189 217 4,000 -95 Descending Philadelphia TRACON
Fri 02:54:53 PM 39.8167 -75.5333 72° East 190 219 4,000 -500 Level Philadelphia TRACON
Fri 02:55:53 PM 39.8167 -75.4667 90° East 192 221 3,000 -1,000 Descending Philadelphia TRACON
Fri 02:56:53 PM 39.8333 -75.4000 72° East 189 217 2,000 -900 Descending Philadelphia TRACON
Fri 02:57:53 PM 39.8500 -75.3500 67° East 130 150 1,200 -756 Descending Philadelphia TRACON
Fri 02:58:52 PM 39.8500 -75.3000 90° East 129 148 500 -712 Descending Philadelphia TRACON
Fri 03:00:00 PM 39.8667 -75.2333 81° East  Level FlightAware Approximate
Fri 03:07:00 PM 39.8722 -75.2409 81° East  Level Estimated

Login

Don't have an account? Register now (free) for customized features, flight alerts, and more!